| time (UTC) | temp C | wind direction | speed KPH | gust KPH | rain 1hr cm | rain 24hr cm | rain mn cm | humidity % | barometer mb |
| 20260906083054 | 20 | 325 | 0.0 | 0.0 | 0.00 | 0.13 | 0.00 | 95 | 1008.7 |
| 20260906081557 | 20 | 325 | 0.0 | 0.0 | 0.00 | 0.13 | 0.00 | 96 | 1008.6 |
| 20260906080109 | 20 | 325 | 0.0 | 0.0 | 0.00 | 0.13 | 0.00 | 95 | 1008.5 |
| 20260906074604 | 20 | 325 | 0.0 | 0.0 | 0.00 | 0.13 | 0.00 | 95 | 1008.4 |
| 20260906073105 | 20 | 325 | 0.0 | 0.0 | 0.00 | 0.13 | 0.00 | 95 | 1008.3 |
| 20260906071549 | 20 | 325 | 0.0 | 0.0 | 0.00 | 0.13 | 0.00 | 95 | 1008.3 |
| 20260906070047 | 20 | 325 | 0.0 | 0.0 | 0.00 | 0.13 | 0.00 | 95 | 1008.6 |
| 20260906064546 | 20 | 325 | 0.0 | 0.0 | 0.00 | 0.13 | 0.00 | 95 | 1008.8 |
| 20260906063048 | 21 | 325 | 0.0 | 0.0 | 0.00 | 0.13 | 0.00 | 95 | 1009.1 |
| 20260906061542 | 21 | 325 | 0.0 | 0.0 | 0.00 | 0.13 | 0.00 | 95 | 1009.1 |
| 20260906060042 | 21 | 325 | 0.0 | 0.0 | 0.00 | 0.13 | 0.00 | 95 | 1009.2 |
| 20260906054541 | 21 | 325 | 0.0 | 0.0 | 0.00 | 0.13 | 0.00 | 95 | 1009.2 |
| 20260906053038 | 21 | 325 | 0.0 | 0.0 | 0.00 | 0.13 | 0.00 | 95 | 1009.3 |
| 20260906051553 | 21 | 325 | 0.0 | 0.0 | 0.00 | 0.13 | 0.00 | 95 | 1009.4 |
| 20260906050137 | 21 | 325 | 0.0 | 0.0 | 0.00 | 0.13 | 0.00 | 95 | 1009.6 |
| 20260906044541 | 21 | 325 | 0.0 | 0.0 | 0.00 | 0.13 | 0.00 | 95 | 1009.6 |
| 20260906043038 | 21 | 325 | 0.0 | 0.0 | 0.00 | 0.13 | 0.00 | 95 | 1009.5 |
| 20260906041532 | 21 | 325 | 0.0 | 0.0 | 0.00 | 0.13 | 0.00 | 95 | 1009.8 |
| 20260906040035 | 21 | 325 | 0.0 | 0.0 | 0.00 | 0.13 | 0.00 | 95 | 1009.7 |
| 20260906034534 | 21 | 325 | 0.0 | 0.0 | 0.00 | 0.13 | 0.13 | 95 | 1009.9 |
| 20260906033028 | 21 | 325 | 0.0 | 0.0 | 0.00 | 0.13 | 0.13 | 95 | 1009.9 |
| 20260906031536 | 21 | 325 | 0.0 | 0.0 | 0.00 | 0.13 | 0.13 | 95 | 1009.8 |
| 20260906030027 | 21 | 325 | 0.0 | 0.0 | 0.00 | 0.13 | 0.13 | 94 | 1009.7 |
| 20260906024526 | 22 | 325 | 0.0 | 0.0 | 0.00 | 0.13 | 0.13 | 94 | 1009.7 |
| 20260906023025 | 22 | 325 | 0.0 | 0.0 | 0.00 | 0.13 | 0.13 | 94 | 1009.7 |
| 20260906021525 | 22 | 325 | 0.0 | 0.0 | 0.00 | 0.13 | 0.13 | 94 | 1009.2 |
| 20260906020024 | 22 | 325 | 0.0 | 0.0 | 0.00 | 0.13 | 0.13 | 93 | 1009.4 |
| 20260906014528 | 22 | 325 | 0.0 | 0.0 | 0.00 | 0.13 | 0.13 | 93 | 1009.4 |
| 20260906013028 | 22 | 325 | 0.0 | 0.0 | 0.00 | 0.13 | 0.13 | 93 | 1009.3 |
| 20260906011523 | 22 | 325 | 0.0 | 0.0 | 0.00 | 0.13 | 0.13 | 92 | 1008.8 |
| 20260906010025 | 23 | 325 | 0.0 | 0.0 | 0.00 | 0.13 | 0.13 | 91 | 1008.7 |
| 20260906004521 | 23 | 325 | 0.0 | 0.0 | 0.00 | 0.13 | 0.13 | 90 | 1008.8 |
| 20260906003122 | 23 | 325 | 0.0 | 0.0 | 0.00 | 0.13 | 0.13 | 89 | 1008.7 |
| 20260906001521 | 24 | 325 | 0.0 | 0.0 | 0.00 | 0.13 | 0.13 | 88 | 1008.5 |
| 20260906000021 | 24 | 325 | 0.0 | 0.0 | 0.00 | 0.13 | 0.13 | 87 | 1008.3 |
| 20260905234520 | 25 | 325 | 0.0 | 0.0 | 0.00 | 0.13 | 0.13 | 86 | 1008.2 |
| 20260905233019 | 26 | 325 | 0.0 | 0.0 | 0.00 | 0.13 | 0.13 | 84 | 1008.0 |
| 20260905231525 | 26 | 325 | 0.0 | 0.0 | 0.00 | 0.13 | 0.13 | 82 | 1008.1 |
| 20260905230022 | 26 | 325 | 0.0 | 0.0 | 0.00 | 0.13 | 0.13 | 81 | 1008.1 |
| 20260905224518 | 27 | 325 | 0.0 | 0.0 | 0.00 | 0.13 | 0.13 | 79 | 1008.3 |
| 20260905223017 | 27 | 325 | 0.0 | 0.0 | 0.00 | 0.13 | 0.13 | 77 | 1008.1 |
| 20260905221517 | 27 | 325 | 0.0 | 0.0 | 0.00 | 0.13 | 0.13 | 77 | 1008.0 |
| 20260905220016 | 27 | 325 | 0.0 | 0.0 | 0.00 | 0.13 | 0.13 | 78 | 1007.7 |
| 20260905214517 | 27 | 325 | 0.0 | 0.0 | 0.00 | 0.13 | 0.13 | 77 | 1008.4 |
| 20260905213018 | 27 | 325 | 0.0 | 1.6 | 0.00 | 0.13 | 0.13 | 78 | 1008.5 |
| 20260905211516 | 26 | 325 | 0.0 | 0.0 | 0.00 | 0.13 | 0.13 | 85 | 1008.7 |
| 20260905210022 | 25 | 325 | 0.0 | 0.0 | 0.00 | 0.13 | 0.13 | 88 | 1008.6 |
| 20260905204514 | 24 | 325 | 0.0 | 0.0 | 0.00 | 0.13 | 0.13 | 89 | 1008.5 |
| 20260905203013 | 23 | 325 | 0.0 | 1.6 | 0.00 | 0.13 | 0.13 | 87 | 1008.5 |
| 20260905201513 | 23 | 325 | 1.6 | 6.4 | 0.00 | 0.13 | 0.13 | 88 | 1008.7 |
| 20260905200016 | 23 | 325 | 0.0 | 6.4 | 0.00 | 0.13 | 0.13 | 90 | 1008.9 |
| 20260905194512 | 23 | 325 | 0.0 | 0.0 | 0.00 | 0.13 | 0.13 | 93 | 1009.1 |
| 20260905193011 | 22 | 325 | 0.0 | 0.0 | 0.00 | 0.13 | 0.13 | 94 | 1008.9 |
| 20260905191510 | 22 | 325 | 0.0 | 0.0 | 0.00 | 0.13 | 0.13 | 93 | 1008.2 |
| 20260905190009 | 22 | 325 | 0.0 | 0.0 | 0.13 | 0.13 | 0.13 | 91 | 1008.2 |
| 20260905184511 | 22 | 325 | 0.0 | 12.9 | 0.13 | 0.13 | 0.13 | 90 | 1008.8 |
| 20260905183006 | 22 | 325 | 0.0 | 1.6 | 0.13 | 0.13 | 0.13 | 87 | 1009.1 |
| 20260905181505 | 26 | 325 | 0.0 | 19.3 | 0.13 | 0.13 | 0.13 | 73 | 1009.7 |
| 20260905180004 | 32 | 304 | 8.0 | 29.0 | 0.00 | 0.00 | 0.00 | 49 | 1009.7 |
| 20260905174510 | 35 | 267 | 0.0 | 1.6 | 0.00 | 0.00 | 0.00 | 53 | 1009.2 |
| 20260905173001 | 35 | 267 | 0.0 | 3.2 | 0.00 | 0.00 | 0.00 | 52 | 1009.1 |
| 20260905171634 | 35 | 267 | 0.0 | 4.8 | 0.00 | 0.00 | 0.00 | 56 | 1009.3 |
| 20260905170105 | 35 | 267 | 0.0 | 3.2 | 0.00 | 0.00 | 0.00 | 55 | 1009.8 |
| 20260905164600 | 35 | 267 | 0.0 | 4.8 | 0.00 | 0.00 | 0.00 | 55 | 1010.0 |
| 20260905163056 | 35 | 267 | 0.0 | 4.8 | 0.00 | 0.00 | 0.00 | 56 | 1010.1 |
| 20260905161550 | 34 | 267 | 0.0 | 1.6 | 0.00 | 0.00 | 0.00 | 57 | 1010.2 |
| 20260905160100 | 34 | 267 | 0.0 | 1.6 | 0.00 | 0.00 | 0.00 | 58 | 1010.4 |
| 20260905154603 | 33 | 267 | 0.0 | 0.0 | 0.00 | 0.00 | 0.00 | 58 | 1010.4 |
| 20260905153044 | 33 | 267 | 0.0 | 1.6 | 0.00 | 0.00 | 0.00 | 63 | 1010.4 |
| 20260905151541 | 33 | 267 | 0.0 | 6.4 | 0.00 | 0.00 | 0.00 | 64 | 1010.5 |
| 20260905150043 | 32 | 267 | 0.0 | 3.2 | 0.00 | 0.00 | 0.00 | 65 | 1010.5 |
| 20260905144538 | 32 | 267 | 0.0 | 6.4 | 0.00 | 0.00 | 0.00 | 67 | 1010.6 |
| 20260905143032 | 31 | 267 | 0.0 | 0.0 | 0.00 | 0.00 | 0.00 | 67 | 1010.6 |
| 20260905141533 | 31 | 267 | 0.0 | 0.0 | 0.00 | 0.00 | 0.00 | 70 | 1010.4 |
| 20260905140028 | 30 | 267 | 0.0 | 3.2 | 0.00 | 0.00 | 0.00 | 72 | 1010.3 |
| 20260905134525 | 29 | 267 | 0.0 | 1.6 | 0.00 | 0.00 | 0.00 | 78 | 1010.5 |
| 20260905133017 | 28 | 267 | 0.0 | 0.0 | 0.00 | 0.00 | 0.00 | 81 | 1010.7 |
| 20260905131529 | 26 | 267 | 0.0 | 0.0 | 0.00 | 0.00 | 0.00 | 85 | 1010.8 |
| 20260905130010 | 25 | 267 | 0.0 | 0.0 | 0.00 | 0.00 | 0.00 | 90 | 1011.0 |
| 20260905124506 | 24 | 267 | 0.0 | 0.0 | 0.00 | 0.00 | 0.00 | 93 | 1010.8 |
| 20260905123002 | 22 | 267 | 0.0 | 0.0 | 0.00 | 0.00 | 0.00 | 95 | 1010.8 |
| 20260905121502 | 21 | 267 | 0.0 | 0.0 | 0.00 | 0.00 | 0.00 | 96 | 1010.7 |
| 20260905120000 | 21 | 267 | 0.0 | 0.0 | 0.00 | 0.00 | 0.00 | 96 | 1010.8 |
| 20260905114609 | 21 | 267 | 0.0 | 0.0 | 0.00 | 0.00 | 0.00 | 95 | 1010.8 |
| 20260905113059 | 20 | 267 | 0.0 | 0.0 | 0.00 | 0.00 | 0.00 | 95 | 1010.7 |
| 20260905111627 | 20 | 267 | 0.0 | 0.0 | 0.00 | 0.00 | 0.00 | 95 | 1010.4 |
| 20260905110110 | 20 | 267 | 0.0 | 0.0 | 0.00 | 0.00 | 0.00 | 95 | 1010.3 |
| 20260905104617 | 20 | 267 | 0.0 | 0.0 | 0.00 | 0.00 | 0.00 | 95 | 1010.1 |
| 20260905103056 | 20 | 267 | 0.0 | 0.0 | 0.00 | 0.00 | 0.00 | 94 | 1010.2 |
| 20260905101556 | 21 | 267 | 0.0 | 0.0 | 0.00 | 0.00 | 0.00 | 95 | 1010.0 |
| 20260905100054 | 21 | 267 | 0.0 | 0.0 | 0.00 | 0.00 | 0.00 | 95 | 1009.7 |
| 20260905094709 | 21 | 267 | 0.0 | 0.0 | 0.00 | 0.00 | 0.00 | 95 | 1009.8 |
| 20260905093102 | 21 | 267 | 0.0 | 0.0 | 0.00 | 0.00 | 0.00 | 94 | 1009.8 |
| 20260905091556 | 21 | 267 | 0.0 | 0.0 | 0.00 | 0.00 | 0.00 | 94 | 1009.6 |
| 20260905090049 | 21 | 267 | 0.0 | 0.0 | 0.00 | 0.00 | 0.00 | 94 | 1009.7 |
| 20260905084558 | 21 | 267 | 0.0 | 0.0 | 0.00 | 0.00 | 0.00 | 94 | 1009.8 |